createdAt,value
2023-07-25T00:00:18.950Z,20.2
2023-07-25T00:01:23.761Z,20.1
2023-07-25T00:02:30.618Z,20.2
2023-07-25T00:03:35.337Z,20.2
2023-07-25T00:04:40.118Z,20.2
2023-07-25T00:05:45.016Z,20
2023-07-25T00:06:49.774Z,20.1
2023-07-25T00:07:58.621Z,20.2
2023-07-25T00:09:03.369Z,20.1
2023-07-25T00:10:09.211Z,20.1
2023-07-25T00:11:13.976Z,20.1
2023-07-25T00:12:18.694Z,20.2
2023-07-25T00:13:25.685Z,20.3
2023-07-25T00:14:31.546Z,20.3
2023-07-25T00:15:36.486Z,20.3
2023-07-25T00:16:41.331Z,20.3
2023-07-25T00:17:47.144Z,20.3
2023-07-25T00:18:52.843Z,20.4
2023-07-25T00:20:00.063Z,20.4
2023-07-25T00:21:05.735Z,20.4
2023-07-25T00:22:10.512Z,20.4
2023-07-25T00:23:15.337Z,20.4
2023-07-25T00:24:21.021Z,20.4
2023-07-25T00:25:25.849Z,20.5
2023-07-25T00:26:30.575Z,20.5
2023-07-25T00:27:35.372Z,20.5
2023-07-25T00:28:40.141Z,20.5
2023-07-25T00:29:50.089Z,20.5
2023-07-25T00:30:57.488Z,20.5
2023-07-25T00:32:07.512Z,20.5
2023-07-25T00:33:12.355Z,20.5
2023-07-25T00:34:17.150Z,20.5
2023-07-25T00:35:21.930Z,20.5
2023-07-25T00:36:26.691Z,20.5
2023-07-25T00:37:31.451Z,20.5
2023-07-25T00:38:36.271Z,20.5
2023-07-25T00:39:42.138Z,20.5
2023-07-25T00:40:46.898Z,20.5
2023-07-25T00:41:51.646Z,20.4
2023-07-25T00:42:56.498Z,20.4
2023-07-25T00:44:01.469Z,20.4
2023-07-25T00:45:06.244Z,20.4
2023-07-25T00:46:11.819Z,20.4
2023-07-25T00:47:16.561Z,20.4
2023-07-25T00:48:21.326Z,20.4
2023-07-25T00:49:26.359Z,20.4
2023-07-25T00:50:32.178Z,20.5
2023-07-25T00:51:36.949Z,20.4
2023-07-25T00:52:43.183Z,20.5
2023-07-25T00:53:53.182Z,20.5
2023-07-25T00:54:59.013Z,20.5
2023-07-25T00:56:03.767Z,20.5
2023-07-25T00:57:08.509Z,20.5
2023-07-25T00:58:13.238Z,20.5
2023-07-25T00:59:18.019Z,20.5
2023-07-25T01:00:23.786Z,20.5
2023-07-25T01:01:28.607Z,20.5
2023-07-25T01:02:34.480Z,20.5
2023-07-25T01:03:39.325Z,20.4
2023-07-25T01:04:44.840Z,20.4
2023-07-25T01:05:50.025Z,20.5
2023-07-25T01:06:56.378Z,20.4
2023-07-25T01:08:02.225Z,20.4
2023-07-25T01:09:08.120Z,20.4
2023-07-25T01:10:12.964Z,20.4
2023-07-25T01:11:20.036Z,20.4
2023-07-25T01:12:24.871Z,20.4
2023-07-25T01:13:31.712Z,20.4
2023-07-25T01:14:38.488Z,20.4
2023-07-25T01:15:44.144Z,20.4
2023-07-25T01:16:49.780Z,20.4
2023-07-25T01:17:54.619Z,20.4
2023-07-25T01:18:59.531Z,20.4
2023-07-25T01:20:04.296Z,20.4
2023-07-25T01:21:09.589Z,20.5
2023-07-25T01:22:14.360Z,20.5
2023-07-25T01:23:19.118Z,20.5
2023-07-25T01:24:24.035Z,20.4
2023-07-25T01:25:28.728Z,20.4
2023-07-25T01:26:33.532Z,20.3
2023-07-25T01:27:40.191Z,20.3
2023-07-25T01:28:44.948Z,20.3
2023-07-25T01:29:50.814Z,20.2
2023-07-25T01:30:55.610Z,20.1
2023-07-25T01:32:01.587Z,20.1
2023-07-25T01:33:08.663Z,20.2
2023-07-25T01:34:14.794Z,20.2
2023-07-25T01:35:20.710Z,20.2
2023-07-25T01:36:25.513Z,20.2
2023-07-25T01:37:31.384Z,20.2
2023-07-25T01:38:36.128Z,20.1
2023-07-25T01:39:41.962Z,20.2
2023-07-25T01:40:46.632Z,20.2
2023-07-25T01:41:52.373Z,20.2
2023-07-25T01:42:57.220Z,20.2
2023-07-25T01:44:02.973Z,20.1
2023-07-25T01:45:07.831Z,20.1
2023-07-25T01:46:13.052Z,20
2023-07-25T01:47:17.742Z,20.1
2023-07-25T01:48:22.501Z,20
2023-07-25T01:49:27.261Z,19.9
2023-07-25T01:50:33.344Z,19.8
2023-07-25T01:51:38.144Z,19.9
2023-07-25T01:52:42.929Z,19.9
2023-07-25T01:53:48.711Z,19.9
2023-07-25T01:54:53.490Z,19.9
2023-07-25T01:55:58.264Z,19.9
2023-07-25T01:57:03.085Z,19.9
2023-07-25T01:58:08.043Z,19.9
2023-07-25T01:59:13.861Z,20
2023-07-25T02:00:19.047Z,20
2023-07-25T02:01:23.903Z,19.9
2023-07-25T02:02:29.772Z,20
2023-07-25T02:03:34.552Z,20
2023-07-25T02:04:39.318Z,20
2023-07-25T02:05:44.051Z,20
2023-07-25T02:06:49.957Z,20
2023-07-25T02:07:54.955Z,20
2023-07-25T02:09:00.763Z,19.9
2023-07-25T02:10:05.587Z,19.9
2023-07-25T02:11:10.742Z,20
2023-07-25T02:12:15.489Z,20
2023-07-25T02:13:20.263Z,20.1
2023-07-25T02:14:25.044Z,20.1
2023-07-25T02:15:30.941Z,20.1
2023-07-25T02:16:36.849Z,20.1
2023-07-25T02:17:41.675Z,20.1
2023-07-25T02:18:46.390Z,20.1
2023-07-25T02:19:51.541Z,20.1
2023-07-25T02:20:56.437Z,20
2023-07-25T02:22:01.172Z,20
2023-07-25T02:23:05.939Z,20
2023-07-25T02:24:10.842Z,19.9
2023-07-25T02:25:15.637Z,19.7
2023-07-25T02:26:20.353Z,19.7
2023-07-25T02:27:27.895Z,19.7
2023-07-25T02:28:32.700Z,19.7
2023-07-25T02:29:37.463Z,19.7
2023-07-25T02:30:44.081Z,19.6
2023-07-25T02:31:48.881Z,19.6
2023-07-25T02:32:53.646Z,19.6
2023-07-25T02:33:58.574Z,19.5
2023-07-25T02:35:04.345Z,19.4
2023-07-25T02:36:09.238Z,19.5
2023-07-25T02:37:14.005Z,19.5
2023-07-25T02:38:20.855Z,19.5
2023-07-25T02:39:25.577Z,19.3
2023-07-25T02:40:30.327Z,19.4
2023-07-25T02:41:35.163Z,19.4
2023-07-25T02:42:39.927Z,19.5
2023-07-25T02:43:44.699Z,19.5
2023-07-25T02:44:49.533Z,19.6
2023-07-25T02:45:55.448Z,19.7
2023-07-25T02:47:01.082Z,19.8
2023-07-25T02:48:06.006Z,19.8
2023-07-25T02:49:10.823Z,19.8
2023-07-25T02:50:15.672Z,19.7
2023-07-25T02:51:22.788Z,19.7
2023-07-25T02:52:28.691Z,19.7
2023-07-25T02:53:33.460Z,19.7
2023-07-25T02:54:38.213Z,19.7
2023-07-25T02:55:43.362Z,19.7
2023-07-25T02:56:49.321Z,19.7
2023-07-25T02:57:55.135Z,19.6
2023-07-25T02:58:59.909Z,19.7
2023-07-25T03:00:05.790Z,19.7
2023-07-25T03:01:11.039Z,19.7
2023-07-25T03:02:15.824Z,19.6
2023-07-25T03:03:20.587Z,19.7
2023-07-25T03:04:26.474Z,19.7
2023-07-25T03:05:31.208Z,19.7
2023-07-25T03:06:35.983Z,19.7
2023-07-25T03:07:41.846Z,19.7
2023-07-25T03:08:48.827Z,19.7
2023-07-25T03:09:54.751Z,19.7
2023-07-25T03:11:00.668Z,19.7
2023-07-25T03:12:05.463Z,19.7
2023-07-25T03:13:10.314Z,19.7
2023-07-25T03:14:15.118Z,19.8
2023-07-25T03:15:19.914Z,19.8
2023-07-25T03:16:24.691Z,19.7
2023-07-25T03:17:29.440Z,19.6
2023-07-25T03:18:34.184Z,19.6
2023-07-25T03:19:40.544Z,19.7
2023-07-25T03:20:45.269Z,19.7
2023-07-25T03:21:50.153Z,19.8
2023-07-25T03:22:54.839Z,19.8
2023-07-25T03:23:59.622Z,19.8
2023-07-25T03:25:04.403Z,19.8
2023-07-25T03:26:09.345Z,19.8
2023-07-25T03:27:14.134Z,19.7
2023-07-25T03:28:18.878Z,19.7
2023-07-25T03:29:24.521Z,19.7
2023-07-25T03:30:30.443Z,19.7
2023-07-25T03:31:36.179Z,19.7
2023-07-25T03:32:41.999Z,19.6
2023-07-25T03:33:46.708Z,19.6
2023-07-25T03:34:53.238Z,19.5
2023-07-25T03:35:58.376Z,19.4
2023-07-25T03:37:05.162Z,19.5
2023-07-25T03:38:10.068Z,19.5
2023-07-25T03:39:14.791Z,19.5
2023-07-25T03:40:19.539Z,19.5
2023-07-25T03:41:25.542Z,19.5
2023-07-25T03:42:30.659Z,19.5
2023-07-25T03:43:36.453Z,19.4
2023-07-25T03:44:41.209Z,19.5
2023-07-25T03:45:45.930Z,19.6
2023-07-25T03:46:50.834Z,19.6
2023-07-25T03:47:56.922Z,19.7
2023-07-25T03:49:03.054Z,19.7
2023-07-25T03:50:08.080Z,19.8
2023-07-25T03:51:14.113Z,19.8
2023-07-25T03:52:21.019Z,19.8
2023-07-25T03:53:26.176Z,19.8
2023-07-25T03:54:30.991Z,19.8
2023-07-25T03:55:36.825Z,19.8
2023-07-25T03:56:43.291Z,19.8
2023-07-25T03:57:48.158Z,19.8
2023-07-25T03:58:52.932Z,19.8
2023-07-25T03:59:57.735Z,19.8
2023-07-25T04:01:03.663Z,19.9
2023-07-25T04:02:09.458Z,19.9
2023-07-25T04:03:15.912Z,19.8
2023-07-25T04:04:19.911Z,19.9
2023-07-25T04:05:25.698Z,19.9
2023-07-25T04:06:30.798Z,19.9
2023-07-25T04:07:36.630Z,19.8
2023-07-25T04:08:41.546Z,19.8
2023-07-25T04:09:46.404Z,19.7
2023-07-25T04:10:51.262Z,19.8
2023-07-25T04:11:56.210Z,19.7
2023-07-25T04:13:01.044Z,19.7
2023-07-25T04:14:05.869Z,19.7
2023-07-25T04:15:10.602Z,19.7
2023-07-25T04:16:16.362Z,19.6
2023-07-25T04:17:21.127Z,19.7
2023-07-25T04:18:26.603Z,19.6
2023-07-25T04:19:31.643Z,19.6
2023-07-25T04:20:37.627Z,19.7
2023-07-25T04:21:42.434Z,19.7
2023-07-25T04:22:49.413Z,19.7
2023-07-25T04:23:54.509Z,19.7
2023-07-25T04:24:59.317Z,19.7
2023-07-25T04:26:04.154Z,19.6
2023-07-25T04:27:08.987Z,19.6
2023-07-25T04:28:14.311Z,19.6
2023-07-25T04:29:19.307Z,19.5
2023-07-25T04:30:25.189Z,19.6
2023-07-25T04:31:31.469Z,19.4
2023-07-25T04:32:38.041Z,19.5
2023-07-25T04:33:42.897Z,19.5
2023-07-25T04:34:47.717Z,19.6
2023-07-25T04:35:53.267Z,19.6
2023-07-25T04:36:58.093Z,19.7
2023-07-25T04:38:02.927Z,19.8
2023-07-25T04:39:07.684Z,19.8
2023-07-25T04:40:12.561Z,19.7
2023-07-25T04:41:17.350Z,19.6
2023-07-25T04:42:23.531Z,19.6
2023-07-25T04:43:28.279Z,19.6
2023-07-25T04:44:35.803Z,19.6
2023-07-25T04:45:41.677Z,19.7
2023-07-25T04:46:46.401Z,19.8
2023-07-25T04:47:51.361Z,19.7
2023-07-25T04:48:56.068Z,19.8
2023-07-25T04:50:01.900Z,19.8
2023-07-25T04:51:07.738Z,19.9
2023-07-25T04:52:12.570Z,19.9
2023-07-25T04:53:17.388Z,20
2023-07-25T04:54:22.160Z,19.9
2023-07-25T04:55:28.087Z,20
2023-07-25T04:56:33.195Z,20.1
2023-07-25T04:57:37.988Z,20.1
2023-07-25T04:58:42.684Z,20.1
2023-07-25T04:59:47.510Z,20.1
2023-07-25T05:00:53.445Z,20.1
2023-07-25T05:01:58.211Z,20.2
2023-07-25T05:03:03.052Z,20.2
2023-07-25T05:04:07.765Z,20.3
2023-07-25T05:05:12.531Z,20.2
2023-07-25T05:06:17.404Z,20.3
2023-07-25T05:07:22.117Z,20.3
2023-07-25T05:08:27.051Z,20.4
2023-07-25T05:09:31.874Z,20.3
2023-07-25T05:10:37.637Z,20.2
2023-07-25T05:11:43.401Z,20.2
2023-07-25T05:12:49.486Z,20.2
2023-07-25T05:13:55.203Z,20.3
2023-07-25T05:14:59.969Z,20.3
2023-07-25T05:16:06.058Z,20.4
2023-07-25T05:17:10.811Z,20.4
2023-07-25T05:18:16.571Z,20.5
2023-07-25T05:19:21.652Z,20.5
2023-07-25T05:20:26.453Z,20.5
2023-07-25T05:21:31.570Z,20.4
2023-07-25T05:22:37.077Z,20.3
2023-07-25T05:23:41.817Z,20.3
2023-07-25T05:24:46.582Z,20.4
2023-07-25T05:25:51.719Z,20.6
2023-07-25T05:26:58.414Z,20.6
2023-07-25T05:28:01.526Z,20.6
2023-07-25T05:29:08.758Z,20.7
2023-07-25T05:30:13.867Z,20.6
2023-07-25T05:31:19.177Z,20.7
2023-07-25T05:32:24.808Z,20.8
2023-07-25T05:33:29.605Z,20.8
2023-07-25T05:34:35.488Z,20.8
2023-07-25T05:35:40.291Z,20.9
2023-07-25T05:36:46.620Z,20.9
2023-07-25T05:37:52.517Z,21
2023-07-25T05:38:58.332Z,21.1
2023-07-25T05:40:04.261Z,21.1
2023-07-25T05:41:09.442Z,20.9
2023-07-25T05:42:15.483Z,21
2023-07-25T05:43:21.356Z,21.1
2023-07-25T05:44:26.268Z,21.1
2023-07-25T05:45:31.112Z,21.1
2023-07-25T05:46:36.167Z,21.2
2023-07-25T05:47:40.966Z,21.2
2023-07-25T05:48:45.689Z,21.3
2023-07-25T05:49:52.681Z,21.4
2023-07-25T05:50:57.450Z,21.4
2023-07-25T05:52:02.231Z,21.5
2023-07-25T05:53:07.254Z,21.5
2023-07-25T05:54:12.028Z,21.5
2023-07-25T05:55:16.824Z,21.6
2023-07-25T05:56:21.954Z,21.7
2023-07-25T05:57:26.834Z,21.7
2023-07-25T05:58:31.708Z,21.6
2023-07-25T05:59:38.077Z,21.7
2023-07-25T06:00:42.873Z,21.6
2023-07-25T06:01:49.836Z,21.7
2023-07-25T06:02:54.697Z,21.8
2023-07-25T06:03:59.636Z,21.8
2023-07-25T06:05:05.623Z,21.8
2023-07-25T06:06:11.808Z,21.8
2023-07-25T06:07:16.536Z,21.9
2023-07-25T06:08:22.483Z,22
2023-07-25T06:09:27.480Z,21.9
2023-07-25T06:10:32.834Z,22
2023-07-25T06:11:39.736Z,22
2023-07-25T06:12:44.496Z,22
2023-07-25T06:13:50.567Z,22.2
2023-07-25T06:14:55.412Z,22.2
2023-07-25T06:16:01.526Z,22.3
2023-07-25T06:17:06.315Z,22.3
2023-07-25T06:18:11.083Z,22.3
2023-07-25T06:19:15.878Z,22.3
2023-07-25T06:20:20.720Z,22.4
2023-07-25T06:21:25.469Z,22.3
2023-07-25T06:22:30.274Z,22.4
2023-07-25T06:23:35.172Z,22.6
2023-07-25T06:24:39.956Z,22.6
2023-07-25T06:25:45.202Z,22.8
2023-07-25T06:26:50.090Z,22.9
2023-07-25T06:27:54.866Z,23
2023-07-25T06:28:59.765Z,23.2
2023-07-25T06:30:04.517Z,23.1
2023-07-25T06:31:09.826Z,23.2
2023-07-25T06:32:14.654Z,22.9
2023-07-25T06:33:19.451Z,23.1
2023-07-25T06:34:24.250Z,23.1
2023-07-25T06:35:29.246Z,23.2
2023-07-25T06:36:34.009Z,23.4
2023-07-25T06:37:38.982Z,23.6
2023-07-25T06:38:44.039Z,23.5
2023-07-25T06:39:48.785Z,23.6
2023-07-25T06:40:53.521Z,23.8
2023-07-25T06:41:58.574Z,23.6
2023-07-25T06:43:03.343Z,23.6
2023-07-25T06:44:08.309Z,23.6
2023-07-25T06:45:12.786Z,23.4
2023-07-25T06:46:17.658Z,23.5
2023-07-25T06:47:22.534Z,23.5
2023-07-25T06:48:27.287Z,23.5
2023-07-25T06:49:34.103Z,23.6
2023-07-25T06:50:38.942Z,23.7
2023-07-25T06:51:43.714Z,23.8
2023-07-25T06:52:48.435Z,23.9
2023-07-25T06:53:54.331Z,23.7
2023-07-25T06:55:01.768Z,23.7
2023-07-25T06:56:07.692Z,23.8
2023-07-25T06:57:12.723Z,23.8
2023-07-25T06:58:17.631Z,23.6
2023-07-25T06:59:23.879Z,23.6
2023-07-25T07:00:28.806Z,23.5
2023-07-25T07:01:33.811Z,23.6
2023-07-25T07:02:38.518Z,23.6
2023-07-25T07:03:43.183Z,23.7
2023-07-25T07:04:48.145Z,23.7
2023-07-25T07:05:53.969Z,23.6
2023-07-25T07:06:58.710Z,23.6
2023-07-25T07:08:10.706Z,23.6
2023-07-25T07:09:16.624Z,23.7
2023-07-25T07:10:21.393Z,23.7
2023-07-25T07:11:26.737Z,23.8
2023-07-25T07:12:31.509Z,23.9
2023-07-25T07:13:36.264Z,23.9
2023-07-25T07:14:41.067Z,24
2023-07-25T07:15:45.883Z,24
2023-07-25T07:16:50.655Z,23.9
2023-07-25T07:17:55.495Z,23.9
2023-07-25T07:19:01.231Z,24
2023-07-25T07:20:07.095Z,24.1
2023-07-25T07:21:12.103Z,24.3
2023-07-25T07:22:16.951Z,24.4
2023-07-25T07:23:21.801Z,24.5
2023-07-25T07:24:27.902Z,24.7
2023-07-25T07:25:32.917Z,24.8
2023-07-25T07:26:37.759Z,24.9
2023-07-25T07:27:42.555Z,24.9
2023-07-25T07:28:47.387Z,25
2023-07-25T07:29:52.227Z,24.7
2023-07-25T07:30:58.072Z,24.7
2023-07-25T07:32:02.920Z,24.6
2023-07-25T07:33:08.000Z,24.5
2023-07-25T07:34:13.036Z,24.5
2023-07-25T07:35:18.163Z,24.6
2023-07-25T07:36:23.005Z,24.9
2023-07-25T07:37:27.937Z,25
2023-07-25T07:38:33.815Z,24.7
2023-07-25T07:39:38.612Z,24.7
2023-07-25T07:40:43.449Z,24.7
2023-07-25T07:41:48.273Z,24.7
2023-07-25T07:42:53.112Z,24.7
2023-07-25T07:43:59.008Z,24.9
2023-07-25T07:45:06.542Z,25
2023-07-25T07:46:11.846Z,25
2023-07-25T07:47:17.829Z,25
2023-07-25T07:48:22.861Z,25
2023-07-25T07:49:28.676Z,25
2023-07-25T07:50:33.432Z,25.1
2023-07-25T07:51:41.451Z,24.9
2023-07-25T07:52:46.623Z,25.1
2023-07-25T07:53:52.389Z,25.2
2023-07-25T07:54:58.308Z,25.3
2023-07-25T07:56:03.335Z,25.1
2023-07-25T07:57:08.142Z,25.3
2023-07-25T07:58:13.226Z,25.4
2023-07-25T07:59:18.129Z,25.3
2023-07-25T08:00:26.613Z,25.4
2023-07-25T08:01:31.859Z,25.3
2023-07-25T08:02:37.415Z,25.3
2023-07-25T08:03:42.568Z,25.2
2023-07-25T08:04:47.367Z,25.2
2023-07-25T08:05:52.188Z,25.1
2023-07-25T08:07:00.769Z,25.1
2023-07-25T08:08:05.817Z,25.3
2023-07-25T08:09:10.676Z,25.4
2023-07-25T08:10:15.434Z,25.4
2023-07-25T08:11:21.406Z,25.2
2023-07-25T08:12:26.153Z,25.2
2023-07-25T08:13:30.952Z,25.2
2023-07-25T08:14:35.950Z,25.3
2023-07-25T08:15:40.778Z,25.3
2023-07-25T08:16:45.536Z,25.2
2023-07-25T08:17:52.169Z,24.9
2023-07-25T08:18:57.034Z,24.8
2023-07-25T08:20:01.802Z,24.8
2023-07-25T08:21:06.710Z,24.8
2023-07-25T08:22:11.788Z,24.8
2023-07-25T08:23:20.613Z,24.8
2023-07-25T08:24:23.351Z,24.7
2023-07-25T08:25:28.105Z,24.6
2023-07-25T08:26:32.868Z,24.7
2023-07-25T08:27:38.723Z,24.8
2023-07-25T08:28:43.513Z,24.8
2023-07-25T08:29:49.565Z,24.8
2023-07-25T08:30:55.441Z,24.6
2023-07-25T08:32:03.060Z,24.7
2023-07-25T08:33:09.652Z,24.7
2023-07-25T08:34:14.392Z,24.7
2023-07-25T08:35:21.974Z,24.7
2023-07-25T08:36:28.014Z,24.7
2023-07-25T08:37:33.186Z,24.7
2023-07-25T08:38:38.973Z,24.7
2023-07-25T08:39:43.751Z,24.7
2023-07-25T08:40:48.588Z,24.7
2023-07-25T08:41:53.673Z,24.9
2023-07-25T08:42:59.523Z,25.1
2023-07-25T08:44:07.228Z,25.2
2023-07-25T08:45:12.051Z,25.3
2023-07-25T08:46:16.982Z,25.4
2023-07-25T08:47:21.582Z,25.3
2023-07-25T08:48:28.062Z,25.4
2023-07-25T08:49:31.187Z,25.5
2023-07-25T08:50:37.106Z,25.6
2023-07-25T08:51:42.920Z,25.7
2023-07-25T08:52:48.682Z,25.8
2023-07-25T08:53:53.435Z,25.9
2023-07-25T08:55:08.481Z,25.9
2023-07-25T08:56:14.324Z,25.9
2023-07-25T08:57:19.299Z,25.8
2023-07-25T08:58:25.220Z,26
2023-07-25T08:59:30.005Z,25.9
2023-07-25T09:00:35.908Z,25.8
2023-07-25T09:01:40.826Z,26
2023-07-25T09:02:46.317Z,25.8
2023-07-25T09:03:52.308Z,25.8
2023-07-25T09:04:56.976Z,25.9
2023-07-25T09:06:03.114Z,25.9
2023-07-25T09:07:08.067Z,25.9
2023-07-25T09:08:14.132Z,25.8
2023-07-25T09:09:20.300Z,25.7
2023-07-25T09:10:25.059Z,25.8
2023-07-25T09:11:34.325Z,25.8
2023-07-25T09:12:38.572Z,26
2023-07-25T09:13:43.367Z,25.9
2023-07-25T09:14:49.535Z,26
2023-07-25T09:15:54.323Z,26.1
2023-07-25T09:17:00.195Z,26.3
2023-07-25T09:18:05.449Z,26.4
2023-07-25T09:19:10.217Z,26.4
2023-07-25T09:20:14.962Z,26.5
2023-07-25T09:21:19.831Z,26.6
2023-07-25T09:22:25.589Z,26.7
2023-07-25T09:23:30.576Z,26.8
2023-07-25T09:24:35.447Z,26.8
2023-07-25T09:25:41.443Z,26.8
2023-07-25T09:26:48.416Z,26.9
2023-07-25T09:27:56.122Z,26.9
2023-07-25T09:29:01.615Z,26.9
2023-07-25T09:30:06.678Z,26.8
2023-07-25T09:31:15.754Z,26.8
2023-07-25T09:32:21.965Z,27
2023-07-25T09:33:29.383Z,27
2023-07-25T09:34:35.294Z,27
2023-07-25T09:35:39.065Z,27
2023-07-25T09:36:43.839Z,26.8
2023-07-25T09:37:48.614Z,27.1
2023-07-25T09:38:58.546Z,27
2023-07-25T09:40:03.599Z,27.1
2023-07-25T09:41:14.618Z,26.8
2023-07-25T09:42:19.392Z,27
2023-07-25T09:43:25.300Z,26.9
2023-07-25T09:44:30.090Z,26.8
2023-07-25T09:45:37.705Z,26.9
2023-07-25T09:46:43.591Z,27
2023-07-25T09:47:58.939Z,27.1
2023-07-25T09:49:03.738Z,27.3
2023-07-25T09:50:09.494Z,27.2
2023-07-25T09:51:15.431Z,27
2023-07-25T09:52:20.162Z,26.9
2023-07-25T09:53:27.056Z,27
2023-07-25T09:54:31.841Z,27
2023-07-25T09:55:36.612Z,26.8
2023-07-25T09:56:41.643Z,26.8
2023-07-25T09:57:49.490Z,26.7
2023-07-25T10:00:03.263Z,26.7
2023-07-25T10:01:08.349Z,26.6
2023-07-25T10:02:14.306Z,26.5
2023-07-25T10:03:19.253Z,26.4
2023-07-25T10:04:23.969Z,26.3
2023-07-25T10:05:29.995Z,26.4
2023-07-25T10:06:36.067Z,26.5
2023-07-25T10:07:41.169Z,26.5
2023-07-25T10:08:48.194Z,26.6
2023-07-25T10:09:53.033Z,26.5
2023-07-25T10:10:58.983Z,26.6
2023-07-25T10:12:05.057Z,26.6
2023-07-25T10:13:11.006Z,26.6
2023-07-25T10:14:15.838Z,26.3
2023-07-25T10:15:20.639Z,26.4
2023-07-25T10:16:25.406Z,26.4
2023-07-25T10:17:31.414Z,26.5
2023-07-25T10:18:36.557Z,26.5
2023-07-25T10:19:41.374Z,26.5
2023-07-25T10:20:54.008Z,26.4
2023-07-25T10:21:59.958Z,26.4
2023-07-25T10:23:04.837Z,26.3
2023-07-25T10:24:09.786Z,26.1
2023-07-25T10:25:15.356Z,26.1
2023-07-25T10:26:25.345Z,26
2023-07-25T10:27:30.454Z,26
2023-07-25T10:28:36.345Z,26
2023-07-25T10:29:41.086Z,25.9
2023-07-25T10:30:49.652Z,25.8
2023-07-25T10:31:54.449Z,26.1
2023-07-25T10:32:59.365Z,26.2
2023-07-25T10:34:06.285Z,26.2
2023-07-25T10:35:11.007Z,26.3
2023-07-25T10:36:15.756Z,26.3
2023-07-25T10:37:27.817Z,26.3
2023-07-25T10:38:33.455Z,26.3
2023-07-25T10:39:41.131Z,26.3
2023-07-25T10:40:45.886Z,26.1
2023-07-25T10:41:54.119Z,26.1
2023-07-25T10:43:06.240Z,26
2023-07-25T10:44:04.650Z,25.9
2023-07-25T10:45:09.441Z,25.9
2023-07-25T10:46:24.617Z,25.8
2023-07-25T10:47:32.679Z,25.8
2023-07-25T10:48:45.639Z,25.8
2023-07-25T10:49:53.320Z,25.8
2023-07-25T10:50:58.401Z,25.7
2023-07-25T10:52:03.364Z,25.8
2023-07-25T10:53:08.399Z,25.7
2023-07-25T10:54:21.200Z,25.8
2023-07-25T10:55:25.954Z,25.8
2023-07-25T10:56:30.764Z,25.8
2023-07-25T10:57:35.555Z,25.8
2023-07-25T10:58:40.382Z,25.7
2023-07-25T10:59:55.233Z,25.7
2023-07-25T11:01:00.098Z,25.6
2023-07-25T11:02:05.030Z,25.5
2023-07-25T11:03:09.868Z,25.4
2023-07-25T11:04:25.013Z,25.5
2023-07-25T11:05:35.072Z,25.5
2023-07-25T11:06:41.137Z,25.4
2023-07-25T11:07:46.949Z,25.5
2023-07-25T11:08:54.950Z,25.5
2023-07-25T11:09:59.788Z,25.5
2023-07-25T11:11:05.736Z,25.4
2023-07-25T11:12:13.299Z,25.3
2023-07-25T11:13:18.099Z,25.3
2023-07-25T11:14:23.022Z,25.3
2023-07-25T11:15:45.430Z,25.2
2023-07-25T11:16:36.006Z,25.2
2023-07-25T11:17:41.333Z,25.1
2023-07-25T11:18:47.254Z,25.1
2023-07-25T11:19:52.372Z,25.1
2023-07-25T11:20:57.187Z,25.1
2023-07-25T11:22:05.090Z,25
2023-07-25T11:23:13.656Z,24.9
2023-07-25T11:24:18.517Z,24.9
2023-07-25T11:25:26.233Z,24.9
2023-07-25T11:26:31.202Z,24.7
2023-07-25T11:27:35.990Z,24.7
2023-07-25T11:28:46.030Z,24.6
2023-07-25T11:29:52.843Z,24.7
2023-07-25T11:30:57.655Z,24.7
2023-07-25T11:32:02.934Z,24.7
2023-07-25T11:33:07.622Z,24.6
2023-07-25T11:34:12.557Z,24.6
2023-07-25T11:35:17.485Z,24.3
2023-07-25T11:36:23.735Z,24.3
2023-07-25T11:37:28.552Z,24.2
2023-07-25T11:38:33.407Z,24.2
2023-07-25T11:39:39.515Z,24.1
2023-07-25T11:40:45.424Z,24
2023-07-25T11:41:57.146Z,23.9
2023-07-25T11:43:02.908Z,23.8
2023-07-25T11:44:07.660Z,23.9
2023-07-25T11:45:13.576Z,23.9
2023-07-25T11:46:18.700Z,24
2023-07-25T11:48:58.707Z,24
2023-07-25T11:50:16.101Z,24
2023-07-25T11:51:09.113Z,24
2023-07-25T11:52:15.144Z,24
2023-07-25T11:53:21.065Z,24.1
2023-07-25T11:54:25.966Z,24
2023-07-25T11:55:30.840Z,24
2023-07-25T11:56:35.730Z,23.9
2023-07-25T11:57:42.576Z,23.7
2023-07-25T11:58:47.671Z,23.6
2023-07-25T11:59:55.490Z,23.7
2023-07-25T12:01:02.531Z,23.8
2023-07-25T12:02:08.688Z,23.8
2023-07-25T12:03:13.740Z,23.6
2023-07-25T12:04:27.035Z,23.6
2023-07-25T12:05:33.112Z,23.3
2023-07-25T12:06:38.161Z,23.4
2023-07-25T12:07:43.169Z,23.4
2023-07-25T12:08:51.316Z,23.1
2023-07-25T12:09:57.470Z,23.2
2023-07-25T12:11:02.687Z,23.2
2023-07-25T12:12:10.825Z,23.2
2023-07-25T12:13:16.419Z,23.1
2023-07-25T12:14:21.400Z,23.1
2023-07-25T12:15:26.962Z,23
2023-07-25T12:16:42.408Z,23
2023-07-25T12:17:47.665Z,22.9
2023-07-25T12:18:52.480Z,22.9
2023-07-25T12:19:58.698Z,22.9
2023-07-25T12:21:03.709Z,22.8
2023-07-25T12:22:08.696Z,22.6
2023-07-25T12:23:13.748Z,22.6
2023-07-25T12:24:18.943Z,22.7
2023-07-25T12:25:24.220Z,22.6
2023-07-25T12:26:29.341Z,22.7
2023-07-25T12:27:39.527Z,22.6
2023-07-25T12:28:52.448Z,22.5
2023-07-25T12:29:57.454Z,22.7
2023-07-25T12:31:02.432Z,22.6
2023-07-25T12:32:07.457Z,22.4
2023-07-25T12:33:13.536Z,22.4
2023-07-25T12:34:19.553Z,22.4
2023-07-25T12:35:24.572Z,22.5
2023-07-25T12:36:31.052Z,22.5
2023-07-25T12:37:36.020Z,22.5
2023-07-25T12:38:41.075Z,22.5
2023-07-25T12:39:46.235Z,22.5
2023-07-25T12:40:52.790Z,22.5
2023-07-25T12:41:57.749Z,22.4
2023-07-25T12:43:03.182Z,22.4
2023-07-25T12:44:09.503Z,22.5
2023-07-25T12:45:14.515Z,22.6
2023-07-25T12:46:20.694Z,22.4
2023-07-25T12:47:25.730Z,22.5
2023-07-25T12:48:31.795Z,22.5
2023-07-25T12:49:36.855Z,22.5
2023-07-25T12:50:41.942Z,22.5
2023-07-25T12:51:46.985Z,22.5
2023-07-25T12:52:51.995Z,22.4
2023-07-25T12:53:57.210Z,22.3
2023-07-25T12:55:02.062Z,22.3
2023-07-25T12:56:07.185Z,22.3
2023-07-25T12:57:13.505Z,22.3
2023-07-25T12:58:18.513Z,22.3
2023-07-25T12:59:23.556Z,22.3
2023-07-25T13:00:30.984Z,22.3
2023-07-25T13:01:36.287Z,22.1
2023-07-25T13:02:41.323Z,22
2023-07-25T13:03:46.356Z,22.2
2023-07-25T13:04:51.305Z,22.2
2023-07-25T13:05:56.336Z,22.2
2023-07-25T13:07:01.805Z,22.2
2023-07-25T13:08:07.969Z,22
2023-07-25T13:09:14.143Z,22
2023-07-25T13:10:19.154Z,22.1
2023-07-25T13:11:25.514Z,22
2023-07-25T13:12:30.549Z,22
2023-07-25T13:13:35.562Z,22.1
2023-07-25T13:14:41.215Z,22.1
2023-07-25T13:15:47.362Z,22.2
2023-07-25T13:16:52.608Z,22.1
2023-07-25T13:17:57.837Z,22
2023-07-25T13:19:02.859Z,22.2
2023-07-25T13:20:07.976Z,22.2
2023-07-25T13:21:14.022Z,22.3
2023-07-25T13:22:18.975Z,22.2
2023-07-25T13:23:23.972Z,22.3
2023-07-25T13:24:30.188Z,22.1
2023-07-25T13:25:35.187Z,22.3
2023-07-25T13:26:40.178Z,22.3
2023-07-25T13:27:45.346Z,22.4
2023-07-25T13:28:50.491Z,22.4
2023-07-25T13:29:55.748Z,22.4
2023-07-25T13:31:00.979Z,22.5
2023-07-25T13:32:05.969Z,22.5
2023-07-25T13:33:12.086Z,22.5
2023-07-25T13:34:17.050Z,22.5
2023-07-25T13:35:22.040Z,22.3
2023-07-25T13:36:27.226Z,22.4
2023-07-25T13:37:32.443Z,22.4
2023-07-25T13:38:37.421Z,22.4
2023-07-25T13:39:42.564Z,22.3
2023-07-25T13:40:47.715Z,22.2
2023-07-25T13:41:52.689Z,22.1
2023-07-25T13:43:06.713Z,22.2
2023-07-25T13:45:23.079Z,22.2
2023-07-25T13:46:28.401Z,22.1
2023-07-25T13:47:33.329Z,22
2023-07-25T13:48:38.370Z,22.1
2023-07-25T13:49:43.387Z,22.2
2023-07-25T13:50:53.465Z,22.2
2023-07-25T13:51:53.499Z,22.3
2023-07-25T13:52:58.677Z,22.3
2023-07-25T13:54:03.699Z,22.3
2023-07-25T13:55:08.850Z,22.4
2023-07-25T13:56:14.163Z,22.3
2023-07-25T13:57:19.698Z,22.4
2023-07-25T14:00:00.251Z,22.4
2023-07-25T14:01:05.366Z,22.5
2023-07-25T14:02:10.313Z,22.3
2023-07-25T14:03:15.275Z,22.4
2023-07-25T14:04:20.205Z,22.4
2023-07-25T14:05:25.349Z,22.3
2023-07-25T14:06:31.413Z,22.5
2023-07-25T14:07:36.470Z,22.5
2023-07-25T14:08:41.492Z,22.6
2023-07-25T14:09:57.884Z,22.6
2023-07-25T14:11:03.476Z,22.7
2023-07-25T14:12:08.895Z,22.7
2023-07-25T14:13:13.885Z,22.8
2023-07-25T14:14:18.890Z,22.6
2023-07-25T14:15:23.858Z,22.7
2023-07-25T14:16:29.863Z,22.8
2023-07-25T14:17:34.854Z,22.9
2023-07-25T14:18:40.227Z,22.8
2023-07-25T14:19:47.313Z,22.9
2023-07-25T14:20:53.347Z,22.9
2023-07-25T14:21:57.588Z,22.9
2023-07-25T14:23:02.598Z,22.9
2023-07-25T14:24:07.716Z,22.7
2023-07-25T14:25:12.874Z,22.7
2023-07-25T14:26:17.891Z,22.8
2023-07-25T14:27:23.271Z,22.8
2023-07-25T14:28:28.402Z,22.8
2023-07-25T14:29:33.353Z,22.7
2023-07-25T14:30:40.256Z,22.8
2023-07-25T14:31:45.551Z,22.7
2023-07-25T14:32:50.540Z,22.8
2023-07-25T14:33:56.495Z,22.8
2023-07-25T14:35:05.704Z,22.8
2023-07-25T14:36:10.880Z,22.9
2023-07-25T14:37:15.956Z,23
2023-07-25T14:38:22.573Z,23
2023-07-25T14:39:27.546Z,22.9
2023-07-25T14:40:33.650Z,23
2023-07-25T14:41:39.789Z,23
2023-07-25T14:42:44.731Z,23
2023-07-25T14:43:51.984Z,23